sensor_id;sensor_type;location;lat;lon;timestamp;temperature;humidity
12303;DHT22;6214;48.012;7.862;2023-07-13T00:01:54;22.80;99.90
12303;DHT22;6214;48.012;7.862;2023-07-13T00:04:24;22.60;99.90
12303;DHT22;6214;48.012;7.862;2023-07-13T00:06:52;22.40;99.90
12303;DHT22;6214;48.012;7.862;2023-07-13T00:09:20;22.40;99.90
12303;DHT22;6214;48.012;7.862;2023-07-13T00:11:54;22.40;99.90
12303;DHT22;6214;48.012;7.862;2023-07-13T00:14:22;22.30;99.90
12303;DHT22;6214;48.012;7.862;2023-07-13T00:16:49;22.30;99.90
12303;DHT22;6214;48.012;7.862;2023-07-13T00:19:15;22.40;99.90
12303;DHT22;6214;48.012;7.862;2023-07-13T00:21:43;22.40;99.90
12303;DHT22;6214;48.012;7.862;2023-07-13T00:24:15;22.50;99.90
12303;DHT22;6214;48.012;7.862;2023-07-13T00:26:43;22.60;99.90
12303;DHT22;6214;48.012;7.862;2023-07-13T00:29:12;22.50;99.90
12303;DHT22;6214;48.012;7.862;2023-07-13T00:31:39;22.60;99.90
12303;DHT22;6214;48.012;7.862;2023-07-13T00:34:06;22.40;99.90
12303;DHT22;6214;48.012;7.862;2023-07-13T00:36:33;22.30;99.90
12303;DHT22;6214;48.012;7.862;2023-07-13T00:39:00;22.30;99.90
12303;DHT22;6214;48.012;7.862;2023-07-13T00:41:27;22.20;99.90
12303;DHT22;6214;48.012;7.862;2023-07-13T00:43:54;22.10;99.90
12303;DHT22;6214;48.012;7.862;2023-07-13T00:46:27;22.10;99.90
12303;DHT22;6214;48.012;7.862;2023-07-13T00:49:01;22.00;99.90
12303;DHT22;6214;48.012;7.862;2023-07-13T00:51:36;22.00;99.90
12303;DHT22;6214;48.012;7.862;2023-07-13T00:54:08;21.90;99.90
12303;DHT22;6214;48.012;7.862;2023-07-13T00:56:36;21.90;99.90
12303;DHT22;6214;48.012;7.862;2023-07-13T00:59:05;22.00;99.90
12303;DHT22;6214;48.012;7.862;2023-07-13T01:01:33;21.90;99.90
12303;DHT22;6214;48.012;7.862;2023-07-13T01:04:00;21.80;99.90
12303;DHT22;6214;48.012;7.862;2023-07-13T01:06:27;21.70;99.90
12303;DHT22;6214;48.012;7.862;2023-07-13T01:08:55;21.80;99.90
12303;DHT22;6214;48.012;7.862;2023-07-13T01:11:22;21.80;99.90
12303;DHT22;6214;48.012;7.862;2023-07-13T01:13:49;21.60;99.90
12303;DHT22;6214;48.012;7.862;2023-07-13T01:16:25;21.70;99.90
12303;DHT22;6214;48.012;7.862;2023-07-13T01:18:52;21.60;99.90
12303;DHT22;6214;48.012;7.862;2023-07-13T01:21:19;21.60;99.90
12303;DHT22;6214;48.012;7.862;2023-07-13T01:23:46;21.60;99.90
12303;DHT22;6214;48.012;7.862;2023-07-13T01:26:13;21.50;99.90
12303;DHT22;6214;48.012;7.862;2023-07-13T01:28:40;21.60;99.90
12303;DHT22;6214;48.012;7.862;2023-07-13T01:31:07;21.40;99.90
12303;DHT22;6214;48.012;7.862;2023-07-13T01:33:37;21.30;99.90
12303;DHT22;6214;48.012;7.862;2023-07-13T01:36:07;21.40;99.90
12303;DHT22;6214;48.012;7.862;2023-07-13T01:38:35;21.30;99.90
12303;DHT22;6214;48.012;7.862;2023-07-13T01:41:03;21.30;99.90
12303;DHT22;6214;48.012;7.862;2023-07-13T01:43:30;21.10;99.90
12303;DHT22;6214;48.012;7.862;2023-07-13T01:45:56;21.10;99.90
12303;DHT22;6214;48.012;7.862;2023-07-13T01:48:43;21.10;99.90
12303;DHT22;6214;48.012;7.862;2023-07-13T01:51:10;21.10;99.90
12303;DHT22;6214;48.012;7.862;2023-07-13T01:53:37;21.10;99.90
12303;DHT22;6214;48.012;7.862;2023-07-13T01:56:04;20.90;99.90
12303;DHT22;6214;48.012;7.862;2023-07-13T01:58:31;20.80;99.90
12303;DHT22;6214;48.012;7.862;2023-07-13T02:00:58;20.80;99.90
12303;DHT22;6214;48.012;7.862;2023-07-13T02:03:25;20.70;99.90
12303;DHT22;6214;48.012;7.862;2023-07-13T02:05:52;20.70;99.90
12303;DHT22;6214;48.012;7.862;2023-07-13T02:08:18;20.70;99.90
12303;DHT22;6214;48.012;7.862;2023-07-13T02:10:45;20.60;99.90
12303;DHT22;6214;48.012;7.862;2023-07-13T02:13:12;20.60;99.90
12303;DHT22;6214;48.012;7.862;2023-07-13T02:15:39;20.60;99.90
12303;DHT22;6214;48.012;7.862;2023-07-13T02:18:09;20.50;99.90
12303;DHT22;6214;48.012;7.862;2023-07-13T02:20:36;20.50;99.90
12303;DHT22;6214;48.012;7.862;2023-07-13T02:23:02;20.60;99.90
12303;DHT22;6214;48.012;7.862;2023-07-13T02:25:32;20.60;99.90
12303;DHT22;6214;48.012;7.862;2023-07-13T02:27:59;20.50;99.90
12303;DHT22;6214;48.012;7.862;2023-07-13T02:30:27;20.40;99.90
12303;DHT22;6214;48.012;7.862;2023-07-13T02:32:56;20.40;99.90
12303;DHT22;6214;48.012;7.862;2023-07-13T02:35:23;20.40;99.90
12303;DHT22;6214;48.012;7.862;2023-07-13T02:37:50;20.30;99.90
12303;DHT22;6214;48.012;7.862;2023-07-13T02:40:17;20.30;99.90
12303;DHT22;6214;48.012;7.862;2023-07-13T02:42:44;20.40;99.90
12303;DHT22;6214;48.012;7.862;2023-07-13T02:45:11;20.40;99.90
12303;DHT22;6214;48.012;7.862;2023-07-13T02:47:41;20.40;99.90
12303;DHT22;6214;48.012;7.862;2023-07-13T02:50:08;20.60;99.90
12303;DHT22;6214;48.012;7.862;2023-07-13T02:52:35;20.60;99.90
12303;DHT22;6214;48.012;7.862;2023-07-13T02:55:02;20.60;99.90
12303;DHT22;6214;48.012;7.862;2023-07-13T02:57:29;20.50;99.90
12303;DHT22;6214;48.012;7.862;2023-07-13T02:59:57;20.40;99.90
12303;DHT22;6214;48.012;7.862;2023-07-13T03:02:24;20.40;99.90
12303;DHT22;6214;48.012;7.862;2023-07-13T03:04:50;20.40;99.90
12303;DHT22;6214;48.012;7.862;2023-07-13T03:07:17;20.20;99.90
12303;DHT22;6214;48.012;7.862;2023-07-13T03:09:44;20.30;99.90
12303;DHT22;6214;48.012;7.862;2023-07-13T03:12:11;20.40;99.90
12303;DHT22;6214;48.012;7.862;2023-07-13T03:14:38;20.50;99.90
12303;DHT22;6214;48.012;7.862;2023-07-13T03:17:05;20.30;99.90
12303;DHT22;6214;48.012;7.862;2023-07-13T03:19:31;20.20;99.90
12303;DHT22;6214;48.012;7.862;2023-07-13T03:21:58;20.00;99.90
12303;DHT22;6214;48.012;7.862;2023-07-13T03:24:25;19.90;99.90
12303;DHT22;6214;48.012;7.862;2023-07-13T03:26:52;19.90;99.90
12303;DHT22;6214;48.012;7.862;2023-07-13T03:29:19;19.80;99.90
12303;DHT22;6214;48.012;7.862;2023-07-13T03:31:46;19.80;99.90
12303;DHT22;6214;48.012;7.862;2023-07-13T03:34:13;19.70;99.90
12303;DHT22;6214;48.012;7.862;2023-07-13T03:36:40;19.70;99.90
12303;DHT22;6214;48.012;7.862;2023-07-13T03:39:07;19.70;99.90
12303;DHT22;6214;48.012;7.862;2023-07-13T03:41:35;19.60;99.90
12303;DHT22;6214;48.012;7.862;2023-07-13T03:44:02;19.60;99.90
12303;DHT22;6214;48.012;7.862;2023-07-13T03:46:29;19.70;99.90
12303;DHT22;6214;48.012;7.862;2023-07-13T03:48:57;19.60;99.90
12303;DHT22;6214;48.012;7.862;2023-07-13T03:51:24;19.50;99.90
12303;DHT22;6214;48.012;7.862;2023-07-13T03:53:51;19.50;99.90
12303;DHT22;6214;48.012;7.862;2023-07-13T03:56:18;19.40;99.90
12303;DHT22;6214;48.012;7.862;2023-07-13T03:58:47;19.50;99.90
12303;DHT22;6214;48.012;7.862;2023-07-13T04:01:15;19.50;99.90
12303;DHT22;6214;48.012;7.862;2023-07-13T04:03:43;19.40;99.90
12303;DHT22;6214;48.012;7.862;2023-07-13T04:06:19;19.40;99.90
12303;DHT22;6214;48.012;7.862;2023-07-13T04:08:55;19.40;99.90
12303;DHT22;6214;48.012;7.862;2023-07-13T04:11:24;19.30;99.90
12303;DHT22;6214;48.012;7.862;2023-07-13T04:13:52;19.30;99.90
12303;DHT22;6214;48.012;7.862;2023-07-13T04:16:19;19.20;99.90
12303;DHT22;6214;48.012;7.862;2023-07-13T04:18:48;19.40;99.90
12303;DHT22;6214;48.012;7.862;2023-07-13T04:21:15;19.40;99.90
12303;DHT22;6214;48.012;7.862;2023-07-13T04:23:43;19.40;99.90
12303;DHT22;6214;48.012;7.862;2023-07-13T04:26:09;19.50;99.90
12303;DHT22;6214;48.012;7.862;2023-07-13T04:28:37;19.70;99.90
12303;DHT22;6214;48.012;7.862;2023-07-13T04:31:04;19.80;99.90
12303;DHT22;6214;48.012;7.862;2023-07-13T04:33:31;19.80;99.90
12303;DHT22;6214;48.012;7.862;2023-07-13T04:35:58;19.80;99.90
12303;DHT22;6214;48.012;7.862;2023-07-13T04:38:30;19.70;99.90
12303;DHT22;6214;48.012;7.862;2023-07-13T04:41:00;19.70;99.90
12303;DHT22;6214;48.012;7.862;2023-07-13T04:43:28;19.70;99.90
12303;DHT22;6214;48.012;7.862;2023-07-13T04:45:56;19.80;99.90
12303;DHT22;6214;48.012;7.862;2023-07-13T04:48:23;19.70;99.90
12303;DHT22;6214;48.012;7.862;2023-07-13T04:50:55;19.70;99.90
12303;DHT22;6214;48.012;7.862;2023-07-13T04:53:23;19.60;99.90
12303;DHT22;6214;48.012;7.862;2023-07-13T04:55:51;19.60;99.90
12303;DHT22;6214;48.012;7.862;2023-07-13T04:58:18;19.60;99.90
12303;DHT22;6214;48.012;7.862;2023-07-13T05:00:45;19.80;99.90
12303;DHT22;6214;48.012;7.862;2023-07-13T05:03:12;19.80;99.90
12303;DHT22;6214;48.012;7.862;2023-07-13T05:06:01;20.00;99.90
12303;DHT22;6214;48.012;7.862;2023-07-13T05:08:28;20.00;99.90
12303;DHT22;6214;48.012;7.862;2023-07-13T05:10:55;19.90;99.90
12303;DHT22;6214;48.012;7.862;2023-07-13T05:13:22;19.90;99.90
12303;DHT22;6214;48.012;7.862;2023-07-13T05:16:03;19.90;99.90
12303;DHT22;6214;48.012;7.862;2023-07-13T05:18:30;20.00;99.90
12303;DHT22;6214;48.012;7.862;2023-07-13T05:21:08;20.10;99.90
12303;DHT22;6214;48.012;7.862;2023-07-13T05:23:36;20.10;99.90
12303;DHT22;6214;48.012;7.862;2023-07-13T05:26:04;20.30;99.90
12303;DHT22;6214;48.012;7.862;2023-07-13T05:28:35;20.50;99.90
12303;DHT22;6214;48.012;7.862;2023-07-13T05:31:03;20.70;99.90
12303;DHT22;6214;48.012;7.862;2023-07-13T05:33:30;20.50;99.90
12303;DHT22;6214;48.012;7.862;2023-07-13T05:35:57;20.50;99.90
12303;DHT22;6214;48.012;7.862;2023-07-13T05:38:24;20.60;99.90
12303;DHT22;6214;48.012;7.862;2023-07-13T05:40:52;20.60;99.90
12303;DHT22;6214;48.012;7.862;2023-07-13T05:43:19;20.60;99.90
12303;DHT22;6214;48.012;7.862;2023-07-13T05:45:46;20.80;99.90
12303;DHT22;6214;48.012;7.862;2023-07-13T05:48:13;21.00;99.90
12303;DHT22;6214;48.012;7.862;2023-07-13T05:50:40;21.20;99.90
12303;DHT22;6214;48.012;7.862;2023-07-13T05:53:07;21.30;99.90
12303;DHT22;6214;48.012;7.862;2023-07-13T05:55:34;21.30;99.90
12303;DHT22;6214;48.012;7.862;2023-07-13T05:58:01;21.40;99.90
12303;DHT22;6214;48.012;7.862;2023-07-13T06:00:28;21.60;99.90
12303;DHT22;6214;48.012;7.862;2023-07-13T06:02:56;21.70;99.90
12303;DHT22;6214;48.012;7.862;2023-07-13T06:05:23;21.80;99.90
12303;DHT22;6214;48.012;7.862;2023-07-13T06:07:50;22.00;99.90
12303;DHT22;6214;48.012;7.862;2023-07-13T06:10:17;21.90;99.90
12303;DHT22;6214;48.012;7.862;2023-07-13T06:12:44;21.90;99.90
12303;DHT22;6214;48.012;7.862;2023-07-13T06:15:11;22.10;99.90
12303;DHT22;6214;48.012;7.862;2023-07-13T06:17:38;22.00;99.90
12303;DHT22;6214;48.012;7.862;2023-07-13T06:20:06;22.10;99.90
12303;DHT22;6214;48.012;7.862;2023-07-13T06:22:33;22.10;99.90
12303;DHT22;6214;48.012;7.862;2023-07-13T06:25:00;22.10;99.90
12303;DHT22;6214;48.012;7.862;2023-07-13T06:27:26;22.20;99.90
12303;DHT22;6214;48.012;7.862;2023-07-13T06:29:56;22.40;99.90
12303;DHT22;6214;48.012;7.862;2023-07-13T06:32:23;22.40;99.90
12303;DHT22;6214;48.012;7.862;2023-07-13T06:34:50;22.70;99.90
12303;DHT22;6214;48.012;7.862;2023-07-13T06:37:18;23.00;99.90
12303;DHT22;6214;48.012;7.862;2023-07-13T06:39:45;23.00;99.90
12303;DHT22;6214;48.012;7.862;2023-07-13T06:42:12;23.10;99.90
12303;DHT22;6214;48.012;7.862;2023-07-13T06:44:40;23.20;99.90
12303;DHT22;6214;48.012;7.862;2023-07-13T06:47:07;23.40;99.90
12303;DHT22;6214;48.012;7.862;2023-07-13T06:49:34;23.60;99.90
12303;DHT22;6214;48.012;7.862;2023-07-13T06:52:01;23.60;99.90
12303;DHT22;6214;48.012;7.862;2023-07-13T06:54:28;23.70;99.90
12303;DHT22;6214;48.012;7.862;2023-07-13T06:56:55;23.80;99.90
12303;DHT22;6214;48.012;7.862;2023-07-13T06:59:22;24.00;99.90
12303;DHT22;6214;48.012;7.862;2023-07-13T07:01:49;24.30;99.90
12303;DHT22;6214;48.012;7.862;2023-07-13T07:04:15;24.40;99.90
12303;DHT22;6214;48.012;7.862;2023-07-13T07:06:42;24.60;99.90
12303;DHT22;6214;48.012;7.862;2023-07-13T07:09:09;24.70;99.90
12303;DHT22;6214;48.012;7.862;2023-07-13T07:11:36;24.90;99.90
12303;DHT22;6214;48.012;7.862;2023-07-13T07:14:04;25.40;99.90
12303;DHT22;6214;48.012;7.862;2023-07-13T07:16:31;25.70;99.90
12303;DHT22;6214;48.012;7.862;2023-07-13T07:18:58;25.80;99.90
12303;DHT22;6214;48.012;7.862;2023-07-13T07:21:25;26.10;99.90
12303;DHT22;6214;48.012;7.862;2023-07-13T07:23:53;27.00;99.90
12303;DHT22;6214;48.012;7.862;2023-07-13T07:26:20;27.80;99.90
12303;DHT22;6214;48.012;7.862;2023-07-13T07:28:50;28.00;99.90
12303;DHT22;6214;48.012;7.862;2023-07-13T07:31:37;28.00;99.90
12303;DHT22;6214;48.012;7.862;2023-07-13T07:34:07;27.80;99.90
12303;DHT22;6214;48.012;7.862;2023-07-13T07:36:34;27.40;99.90
12303;DHT22;6214;48.012;7.862;2023-07-13T07:39:04;26.80;99.90
12303;DHT22;6214;48.012;7.862;2023-07-13T07:41:31;26.60;99.90
12303;DHT22;6214;48.012;7.862;2023-07-13T07:44:01;26.30;99.90
12303;DHT22;6214;48.012;7.862;2023-07-13T07:46:28;25.90;99.90
12303;DHT22;6214;48.012;7.862;2023-07-13T07:48:55;25.40;99.90
12303;DHT22;6214;48.012;7.862;2023-07-13T07:51:22;25.30;99.90
12303;DHT22;6214;48.012;7.862;2023-07-13T07:53:49;25.40;99.90
12303;DHT22;6214;48.012;7.862;2023-07-13T07:56:16;25.60;99.90
12303;DHT22;6214;48.012;7.862;2023-07-13T07:58:46;25.70;99.90
12303;DHT22;6214;48.012;7.862;2023-07-13T08:01:16;26.00;99.90
12303;DHT22;6214;48.012;7.862;2023-07-13T08:03:46;25.70;99.90
12303;DHT22;6214;48.012;7.862;2023-07-13T08:06:16;25.70;99.90
12303;DHT22;6214;48.012;7.862;2023-07-13T08:09:02;25.60;99.90
12303;DHT22;6214;48.012;7.862;2023-07-13T08:11:30;25.70;99.90
12303;DHT22;6214;48.012;7.862;2023-07-13T08:14:00;25.60;99.90
12303;DHT22;6214;48.012;7.862;2023-07-13T08:16:27;25.50;99.90
12303;DHT22;6214;48.012;7.862;2023-07-13T08:18:54;25.20;99.90
12303;DHT22;6214;48.012;7.862;2023-07-13T08:21:21;24.90;99.90
12303;DHT22;6214;48.012;7.862;2023-07-13T08:23:48;24.90;99.90
12303;DHT22;6214;48.012;7.862;2023-07-13T08:26:15;25.10;99.90
12303;DHT22;6214;48.012;7.862;2023-07-13T08:28:42;25.30;99.90
12303;DHT22;6214;48.012;7.862;2023-07-13T08:31:10;25.10;99.90
12303;DHT22;6214;48.012;7.862;2023-07-13T08:33:38;25.10;99.90
12303;DHT22;6214;48.012;7.862;2023-07-13T08:36:05;25.50;99.90
12303;DHT22;6214;48.012;7.862;2023-07-13T08:38:32;25.70;99.90
12303;DHT22;6214;48.012;7.862;2023-07-13T08:40:59;25.80;99.90
12303;DHT22;6214;48.012;7.862;2023-07-13T08:43:28;25.70;99.90
12303;DHT22;6214;48.012;7.862;2023-07-13T08:46:18;25.60;99.90
12303;DHT22;6214;48.012;7.862;2023-07-13T08:48:54;25.70;99.90
12303;DHT22;6214;48.012;7.862;2023-07-13T08:53:59;26.00;99.90
12303;DHT22;6214;48.012;7.862;2023-07-13T08:56:29;25.90;99.90
12303;DHT22;6214;48.012;7.862;2023-07-13T08:59:00;25.90;99.90
12303;DHT22;6214;48.012;7.862;2023-07-13T09:01:42;25.80;99.90
12303;DHT22;6214;48.012;7.862;2023-07-13T09:04:21;25.80;99.90
12303;DHT22;6214;48.012;7.862;2023-07-13T09:12:28;26.00;99.90
12303;DHT22;6214;48.012;7.862;2023-07-13T09:14:58;25.70;99.90
12303;DHT22;6214;48.012;7.862;2023-07-13T09:17:33;25.90;99.90
12303;DHT22;6214;48.012;7.862;2023-07-13T09:20:22;25.60;99.90
12303;DHT22;6214;48.012;7.862;2023-07-13T09:22:52;25.60;99.90
12303;DHT22;6214;48.012;7.862;2023-07-13T09:25:30;25.50;99.90
12303;DHT22;6214;48.012;7.862;2023-07-13T09:28:20;25.60;99.90
12303;DHT22;6214;48.012;7.862;2023-07-13T09:31:07;25.60;99.90
12303;DHT22;6214;48.012;7.862;2023-07-13T09:33:37;25.60;99.90
12303;DHT22;6214;48.012;7.862;2023-07-13T09:36:19;25.80;99.90
12303;DHT22;6214;48.012;7.862;2023-07-13T09:38:48;25.80;99.90
12303;DHT22;6214;48.012;7.862;2023-07-13T09:41:23;25.80;99.90
12303;DHT22;6214;48.012;7.862;2023-07-13T09:44:13;26.00;99.90
12303;DHT22;6214;48.012;7.862;2023-07-13T09:46:54;25.90;99.90
12303;DHT22;6214;48.012;7.862;2023-07-13T09:49:29;25.80;99.90
12303;DHT22;6214;48.012;7.862;2023-07-13T09:52:04;26.00;99.90
12303;DHT22;6214;48.012;7.862;2023-07-13T09:54:36;25.90;99.90
12303;DHT22;6214;48.012;7.862;2023-07-13T09:57:14;25.90;99.90
12303;DHT22;6214;48.012;7.862;2023-07-13T09:59:51;26.10;99.90
12303;DHT22;6214;48.012;7.862;2023-07-13T10:02:35;26.50;99.90
12303;DHT22;6214;48.012;7.862;2023-07-13T10:05:03;26.70;99.90
12303;DHT22;6214;48.012;7.862;2023-07-13T10:07:32;26.60;99.90
12303;DHT22;6214;48.012;7.862;2023-07-13T10:10:01;26.50;99.90
12303;DHT22;6214;48.012;7.862;2023-07-13T10:12:30;26.60;99.90
12303;DHT22;6214;48.012;7.862;2023-07-13T10:15:02;26.80;99.90
12303;DHT22;6214;48.012;7.862;2023-07-13T10:17:51;26.70;99.90
12303;DHT22;6214;48.012;7.862;2023-07-13T10:20:20;26.80;99.90
12303;DHT22;6214;48.012;7.862;2023-07-13T10:23:04;26.90;99.90
12303;DHT22;6214;48.012;7.862;2023-07-13T10:25:36;27.10;99.90
12303;DHT22;6214;48.012;7.862;2023-07-13T10:28:22;27.20;99.90
12303;DHT22;6214;48.012;7.862;2023-07-13T10:30:52;27.30;99.90
12303;DHT22;6214;48.012;7.862;2023-07-13T10:33:21;27.30;99.90
12303;DHT22;6214;48.012;7.862;2023-07-13T10:35:55;27.20;99.90
12303;DHT22;6214;48.012;7.862;2023-07-13T10:38:23;27.10;99.90
12303;DHT22;6214;48.012;7.862;2023-07-13T10:41:04;27.10;99.90
12303;DHT22;6214;48.012;7.862;2023-07-13T10:43:41;27.30;99.90
12303;DHT22;6214;48.012;7.862;2023-07-13T10:46:11;27.40;99.90
12303;DHT22;6214;48.012;7.862;2023-07-13T10:48:41;27.10;99.90
12303;DHT22;6214;48.012;7.862;2023-07-13T10:51:10;27.00;99.90
12303;DHT22;6214;48.012;7.862;2023-07-13T10:53:39;27.10;99.90
12303;DHT22;6214;48.012;7.862;2023-07-13T10:56:20;27.40;99.90
12303;DHT22;6214;48.012;7.862;2023-07-13T10:59:17;27.40;99.90
12303;DHT22;6214;48.012;7.862;2023-07-13T11:01:55;27.50;99.90
12303;DHT22;6214;48.012;7.862;2023-07-13T11:04:25;27.70;99.90
12303;DHT22;6214;48.012;7.862;2023-07-13T11:06:57;27.70;99.90
12303;DHT22;6214;48.012;7.862;2023-07-13T11:09:36;27.70;99.90
12303;DHT22;6214;48.012;7.862;2023-07-13T11:12:09;27.70;99.90
12303;DHT22;6214;48.012;7.862;2023-07-13T11:22:44;27.60;99.90
12303;DHT22;6214;48.012;7.862;2023-07-13T11:25:28;27.60;99.90
12303;DHT22;6214;48.012;7.862;2023-07-13T11:28:06;27.60;99.90
12303;DHT22;6214;48.012;7.862;2023-07-13T11:38:43;27.20;99.90
12303;DHT22;6214;48.012;7.862;2023-07-13T11:41:23;27.30;99.90
12303;DHT22;6214;48.012;7.862;2023-07-13T11:43:56;27.50;99.90
12303;DHT22;6214;48.012;7.862;2023-07-13T11:46:29;27.60;99.90
12303;DHT22;6214;48.012;7.862;2023-07-13T11:48:56;27.70;99.90
12303;DHT22;6214;48.012;7.862;2023-07-13T11:53:56;27.90;99.90
12303;DHT22;6214;48.012;7.862;2023-07-13T11:56:26;28.10;99.90
12303;DHT22;6214;48.012;7.862;2023-07-13T11:58:55;28.10;99.90
12303;DHT22;6214;48.012;7.862;2023-07-13T12:01:26;28.30;99.90
12303;DHT22;6214;48.012;7.862;2023-07-13T12:03:53;28.20;99.90
12303;DHT22;6214;48.012;7.862;2023-07-13T12:06:27;28.30;99.90
12303;DHT22;6214;48.012;7.862;2023-07-13T12:09:00;28.30;99.90
12303;DHT22;6214;48.012;7.862;2023-07-13T12:11:27;27.90;99.90
12303;DHT22;6214;48.012;7.862;2023-07-13T12:13:54;27.50;99.90
12303;DHT22;6214;48.012;7.862;2023-07-13T12:18:53;27.80;99.90
12303;DHT22;6214;48.012;7.862;2023-07-13T12:21:23;27.80;99.90
12303;DHT22;6214;48.012;7.862;2023-07-13T12:23:52;27.50;99.90
12303;DHT22;6214;48.012;7.862;2023-07-13T12:26:19;27.50;99.90
12303;DHT22;6214;48.012;7.862;2023-07-13T12:28:55;27.70;99.90
12303;DHT22;6214;48.012;7.862;2023-07-13T12:31:30;27.70;99.90
12303;DHT22;6214;48.012;7.862;2023-07-13T12:34:08;27.40;99.90
12303;DHT22;6214;48.012;7.862;2023-07-13T12:36:38;27.00;99.90
12303;DHT22;6214;48.012;7.862;2023-07-13T12:39:14;27.10;99.90
12303;DHT22;6214;48.012;7.862;2023-07-13T12:41:42;27.30;99.90
12303;DHT22;6214;48.012;7.862;2023-07-13T12:44:17;27.30;99.90
12303;DHT22;6214;48.012;7.862;2023-07-13T12:46:53;27.40;99.90
12303;DHT22;6214;48.012;7.862;2023-07-13T12:49:27;27.20;99.90
12303;DHT22;6214;48.012;7.862;2023-07-13T12:51:57;27.20;99.90
12303;DHT22;6214;48.012;7.862;2023-07-13T12:54:27;27.40;99.90
12303;DHT22;6214;48.012;7.862;2023-07-13T12:56:55;27.50;99.90
12303;DHT22;6214;48.012;7.862;2023-07-13T12:59:29;27.40;99.90
12303;DHT22;6214;48.012;7.862;2023-07-13T13:01:56;27.50;99.90
12303;DHT22;6214;48.012;7.862;2023-07-13T13:04:23;27.60;99.90
12303;DHT22;6214;48.012;7.862;2023-07-13T13:07:01;27.40;99.90
12303;DHT22;6214;48.012;7.862;2023-07-13T13:09:28;27.00;99.90
12303;DHT22;6214;48.012;7.862;2023-07-13T13:11:55;27.10;99.90
12303;DHT22;6214;48.012;7.862;2023-07-13T13:14:22;27.30;99.90
12303;DHT22;6214;48.012;7.862;2023-07-13T13:16:50;27.40;99.90
12303;DHT22;6214;48.012;7.862;2023-07-13T13:19:20;27.60;99.90
12303;DHT22;6214;48.012;7.862;2023-07-13T13:21:49;27.50;99.90
12303;DHT22;6214;48.012;7.862;2023-07-13T13:24:23;27.10;99.90
12303;DHT22;6214;48.012;7.862;2023-07-13T13:26:52;26.70;99.90
12303;DHT22;6214;48.012;7.862;2023-07-13T13:29:22;26.70;99.90
12303;DHT22;6214;48.012;7.862;2023-07-13T13:31:52;26.70;99.90
12303;DHT22;6214;48.012;7.862;2023-07-13T13:34:20;26.70;99.90
12303;DHT22;6214;48.012;7.862;2023-07-13T13:36:50;26.80;99.90
12303;DHT22;6214;48.012;7.862;2023-07-13T13:39:25;26.60;99.90
12303;DHT22;6214;48.012;7.862;2023-07-13T13:41:54;26.50;99.90
12303;DHT22;6214;48.012;7.862;2023-07-13T13:44:22;26.50;99.90
12303;DHT22;6214;48.012;7.862;2023-07-13T13:46:52;26.70;99.90
12303;DHT22;6214;48.012;7.862;2023-07-13T13:49:27;26.80;99.90
12303;DHT22;6214;48.012;7.862;2023-07-13T13:51:54;27.00;99.90
12303;DHT22;6214;48.012;7.862;2023-07-13T13:54:22;27.10;99.90
12303;DHT22;6214;48.012;7.862;2023-07-13T13:56:51;27.00;99.90
12303;DHT22;6214;48.012;7.862;2023-07-13T13:59:18;26.80;99.90
12303;DHT22;6214;48.012;7.862;2023-07-13T14:01:48;26.80;99.90
12303;DHT22;6214;48.012;7.862;2023-07-13T14:04:21;26.50;99.90
12303;DHT22;6214;48.012;7.862;2023-07-13T14:06:49;26.40;99.90
12303;DHT22;6214;48.012;7.862;2023-07-13T14:09:17;26.40;99.90
12303;DHT22;6214;48.012;7.862;2023-07-13T14:11:46;26.50;99.90
12303;DHT22;6214;48.012;7.862;2023-07-13T14:14:20;26.70;99.90
12303;DHT22;6214;48.012;7.862;2023-07-13T14:16:49;26.70;99.90
12303;DHT22;6214;48.012;7.862;2023-07-13T14:19:21;26.60;99.90
12303;DHT22;6214;48.012;7.862;2023-07-13T14:21:48;26.40;99.90
12303;DHT22;6214;48.012;7.862;2023-07-13T14:24:16;26.30;99.90
12303;DHT22;6214;48.012;7.862;2023-07-13T14:26:47;26.10;99.90
12303;DHT22;6214;48.012;7.862;2023-07-13T14:29:18;26.20;99.90
12303;DHT22;6214;48.012;7.862;2023-07-13T14:31:50;26.20;99.90
12303;DHT22;6214;48.012;7.862;2023-07-13T14:34:17;26.00;99.90
12303;DHT22;6214;48.012;7.862;2023-07-13T14:36:46;25.90;99.90
12303;DHT22;6214;48.012;7.862;2023-07-13T14:39:23;25.80;99.90
12303;DHT22;6214;48.012;7.862;2023-07-13T14:41:51;25.80;99.90
12303;DHT22;6214;48.012;7.862;2023-07-13T14:44:25;25.70;99.90
12303;DHT22;6214;48.012;7.862;2023-07-13T14:46:52;25.60;99.90
12303;DHT22;6214;48.012;7.862;2023-07-13T14:51:54;25.70;99.90
12303;DHT22;6214;48.012;7.862;2023-07-13T14:54:21;25.80;99.90
12303;DHT22;6214;48.012;7.862;2023-07-13T14:56:48;25.80;99.90
12303;DHT22;6214;48.012;7.862;2023-07-13T14:59:15;25.90;99.90
12303;DHT22;6214;48.012;7.862;2023-07-13T15:01:41;26.00;99.90
12303;DHT22;6214;48.012;7.862;2023-07-13T15:04:08;26.00;99.90
12303;DHT22;6214;48.012;7.862;2023-07-13T15:09:22;26.20;99.90
12303;DHT22;6214;48.012;7.862;2023-07-13T15:11:51;26.30;99.90
12303;DHT22;6214;48.012;7.862;2023-07-13T15:14:18;26.20;99.90
12303;DHT22;6214;48.012;7.862;2023-07-13T15:16:47;26.30;99.90
12303;DHT22;6214;48.012;7.862;2023-07-13T15:19:16;26.40;99.90
12303;DHT22;6214;48.012;7.862;2023-07-13T15:21:44;26.50;99.90
12303;DHT22;6214;48.012;7.862;2023-07-13T15:24:11;26.60;99.90
12303;DHT22;6214;48.012;7.862;2023-07-13T15:26:38;26.70;99.90
12303;DHT22;6214;48.012;7.862;2023-07-13T15:29:05;26.80;99.90
12303;DHT22;6214;48.012;7.862;2023-07-13T15:31:33;26.70;99.90
12303;DHT22;6214;48.012;7.862;2023-07-13T15:34:07;26.70;99.90
12303;DHT22;6214;48.012;7.862;2023-07-13T15:36:36;26.60;99.90
12303;DHT22;6214;48.012;7.862;2023-07-13T15:39:03;26.60;99.90
12303;DHT22;6214;48.012;7.862;2023-07-13T15:41:31;26.60;99.90
12303;DHT22;6214;48.012;7.862;2023-07-13T15:43:59;26.50;99.90
12303;DHT22;6214;48.012;7.862;2023-07-13T15:46:27;26.50;99.90
12303;DHT22;6214;48.012;7.862;2023-07-13T15:48:57;26.50;99.90
12303;DHT22;6214;48.012;7.862;2023-07-13T15:51:26;26.40;99.90
12303;DHT22;6214;48.012;7.862;2023-07-13T15:53:59;26.40;99.90
12303;DHT22;6214;48.012;7.862;2023-07-13T15:56:27;26.40;99.90
12303;DHT22;6214;48.012;7.862;2023-07-13T15:58:55;26.30;99.90
12303;DHT22;6214;48.012;7.862;2023-07-13T16:01:23;26.30;99.90
12303;DHT22;6214;48.012;7.862;2023-07-13T16:03:50;26.30;99.90
12303;DHT22;6214;48.012;7.862;2023-07-13T16:06:24;26.30;99.90
12303;DHT22;6214;48.012;7.862;2023-07-13T16:08:52;26.30;99.90
12303;DHT22;6214;48.012;7.862;2023-07-13T16:11:23;26.30;99.90
12303;DHT22;6214;48.012;7.862;2023-07-13T16:13:51;26.40;99.90
12303;DHT22;6214;48.012;7.862;2023-07-13T16:16:24;26.30;99.90
12303;DHT22;6214;48.012;7.862;2023-07-13T16:18:57;26.30;99.90
12303;DHT22;6214;48.012;7.862;2023-07-13T16:21:29;26.30;99.90
12303;DHT22;6214;48.012;7.862;2023-07-13T16:23:58;26.30;99.90
12303;DHT22;6214;48.012;7.862;2023-07-13T16:26:36;26.40;99.90
12303;DHT22;6214;48.012;7.862;2023-07-13T16:29:21;26.50;99.90
12303;DHT22;6214;48.012;7.862;2023-07-13T16:32:10;26.60;99.90
12303;DHT22;6214;48.012;7.862;2023-07-13T16:34:40;26.40;99.90
12303;DHT22;6214;48.012;7.862;2023-07-13T16:39:45;26.50;99.90